Time,TemperatureF,DewpointF,PressureIn,WindDirection,WindDirectionDegrees,WindSpeedMPH,WindSpeedGustMPH,Humidity,HourlyPrecipIn,Conditions,Clouds,dailyrainin,SoftwareType,DateUTC
2013-05-29 00:08:00,56.1,51.6,29.82,NNW,340,5.0,8.7,85,0.00,,,-99.99,FreeWX-Wi 1.01,2013-05-29 07:08:00,
2013-05-29 00:18:00,56.1,52.0,29.85,NNW,338,4.0,6.3,86,0.00,,,-99.99,FreeWX-Wi 1.01,2013-05-29 07:18:00,
2013-05-29 00:28:00,56.1,52.3,29.85,NNW,337,3.0,6.3,87,0.00,,,-99.99,FreeWX-Wi 1.01,2013-05-29 07:28:00,
2013-05-29 00:38:00,56.1,52.3,29.82,NNW,347,2.0,5.4,87,0.00,,,-99.99,FreeWX-Wi 1.01,2013-05-29 07:38:00,
2013-05-29 00:48:00,56.1,52.3,29.82,North,358,2.0,9.6,87,0.00,,,-99.99,FreeWX-Wi 1.01,2013-05-29 07:48:00,
2013-05-29 00:58:00,56.1,52.7,29.82,North,5,2.0,8.7,88,0.00,,,-99.99,FreeWX-Wi 1.01,2013-05-29 07:58:00,
2013-05-29 01:08:00,56.1,52.3,29.82,North,349,3.0,7.6,87,0.00,,,-99.99,FreeWX-Wi 1.01,2013-05-29 08:08:00,
2013-05-29 01:18:00,56.3,52.5,29.82,NNW,348,2.0,8.1,87,0.00,,,-99.99,FreeWX-Wi 1.01,2013-05-29 08:18:00,
2013-05-29 01:28:00,56.3,52.5,29.82,North,354,2.0,5.8,87,0.00,,,-99.99,FreeWX-Wi 1.01,2013-05-29 08:28:00,
2013-05-29 01:38:00,56.3,51.8,29.82,North,3,3.0,11.0,85,0.00,,,-99.99,FreeWX-Wi 1.01,2013-05-29 08:38:00,
2013-05-29 01:48:00,56.1,51.3,29.82,North,355,3.0,6.3,84,0.00,,,-99.99,FreeWX-Wi 1.01,2013-05-29 08:48:00,
2013-05-29 01:59:00,56.1,51.3,29.82,NNW,345,2.0,6.3,84,0.00,,,-99.99,FreeWX-Wi 1.01,2013-05-29 08:59:00,
2013-05-29 02:09:00,55.9,51.3,29.82,NNW,340,2.0,6.7,84,0.00,,,-99.99,FreeWX-Wi 1.01,2013-05-29 09:09:00,
2013-05-29 02:19:00,55.9,50.9,29.82,NNW,334,2.0,7.6,83,0.00,,,-99.99,FreeWX-Wi 1.01,2013-05-29 09:19:00,
2013-05-29 02:29:00,56.1,51.1,29.82,NNW,346,3.0,7.6,83,0.00,,,-99.99,FreeWX-Wi 1.01,2013-05-29 09:29:00,
2013-05-29 02:39:00,56.1,50.4,29.82,North,352,4.0,8.3,81,0.00,,,-99.99,FreeWX-Wi 1.01,2013-05-29 09:39:00,
2013-05-29 02:49:00,56.3,50.5,29.82,North,354,4.0,8.3,81,0.00,,,-99.99,FreeWX-Wi 1.01,2013-05-29 09:49:00,
2013-05-29 02:59:00,56.3,50.5,29.82,North,353,4.0,7.6,81,0.00,,,-99.99,FreeWX-Wi 1.01,2013-05-29 09:59:00,
2013-05-29 03:09:00,56.5,51.1,29.85,NNE,17,3.0,5.8,82,0.00,,,-99.99,FreeWX-Wi 1.01,2013-05-29 10:09:00,
2013-05-29 03:19:00,56.3,51.3,29.82,NNE,26,2.0,4.0,83,0.00,,,-99.99,FreeWX-Wi 1.01,2013-05-29 10:19:00,
2013-05-29 03:29:00,56.3,51.3,29.82,NE,34,1.0,3.6,83,0.00,,,-99.99,FreeWX-Wi 1.01,2013-05-29 10:29:00,
2013-05-29 03:39:00,56.5,51.4,29.82,NNE,29,1.0,5.4,83,0.00,,,-99.99,FreeWX-Wi 1.01,2013-05-29 10:39:00,
2013-05-29 03:49:00,56.7,51.3,29.82,NE,49,2.0,6.3,82,0.00,,,-99.99,FreeWX-Wi 1.01,2013-05-29 10:49:00,
2013-05-29 03:59:00,56.5,51.1,29.82,NE,45,2.0,5.8,82,0.00,,,-99.99,FreeWX-Wi 1.01,2013-05-29 10:59:00,
2013-05-29 04:09:00,56.7,51.3,29.82,NE,47,2.0,5.8,82,0.00,,,-99.99,FreeWX-Wi 1.01,2013-05-29 11:09:00,
2013-05-29 04:19:00,56.7,50.9,29.82,ENE,57,2.0,6.3,81,0.00,,,-99.99,FreeWX-Wi 1.01,2013-05-29 11:19:00,
2013-05-29 04:29:00,56.7,50.9,29.82,ENE,67,2.0,5.8,81,0.00,,,-99.99,FreeWX-Wi 1.01,2013-05-29 11:29:00,
2013-05-29 04:39:00,56.7,50.9,29.82,ENE,60,2.0,5.4,81,0.00,,,-99.99,FreeWX-Wi 1.01,2013-05-29 11:39:00,
2013-05-29 04:49:00,56.7,50.9,29.82,NE,49,2.0,5.4,81,0.00,,,-99.99,FreeWX-Wi 1.01,2013-05-29 11:49:00,
2013-05-29 04:59:00,56.7,50.9,29.82,North,5,2.0,5.4,81,0.00,,,-99.99,FreeWX-Wi 1.01,2013-05-29 11:59:00,
2013-05-29 05:09:00,56.7,50.5,29.82,North,354,2.0,5.8,80,0.00,,,-99.99,FreeWX-Wi 1.01,2013-05-29 12:09:00,
2013-05-29 05:19:00,56.8,50.4,29.82,NNE,13,1.0,4.0,79,0.00,,,-99.99,FreeWX-Wi 1.01,2013-05-29 12:19:00,
2013-05-29 05:29:00,56.8,49.3,29.82,North,9,2.0,8.3,76,0.00,,,-99.99,FreeWX-Wi 1.01,2013-05-29 12:29:00,
2013-05-29 05:39:00,56.8,49.3,29.82,North,350,2.0,6.3,76,0.00,,,-99.99,FreeWX-Wi 1.01,2013-05-29 12:39:00,
2013-05-29 05:49:00,56.8,49.3,29.82,NNW,337,3.0,6.3,76,0.00,,,-99.99,FreeWX-Wi 1.01,2013-05-29 12:49:00,
2013-05-29 05:59:00,56.8,49.6,29.82,NNW,342,3.0,6.3,77,0.00,,,-99.99,FreeWX-Wi 1.01,2013-05-29 12:59:00,
2013-05-29 06:09:00,56.8,50.0,29.82,NNW,339,3.0,7.6,78,0.00,,,-99.99,FreeWX-Wi 1.01,2013-05-29 13:09:00,
2013-05-29 06:19:00,57.0,50.2,29.82,NNW,339,3.0,7.6,78,0.00,,,-99.99,FreeWX-Wi 1.01,2013-05-29 13:19:00,
2013-05-29 06:29:00,57.0,49.8,29.82,NNW,338,2.0,4.9,77,0.00,,,-99.99,FreeWX-Wi 1.01,2013-05-29 13:29:00,
2013-05-29 06:39:00,57.2,49.6,29.82,NNW,343,1.0,3.6,76,0.00,,,-99.99,FreeWX-Wi 1.01,2013-05-29 13:39:00,
2013-05-29 06:49:00,57.4,49.8,29.82,North,-999,0.0,4.9,76,0.00,,,-99.99,FreeWX-Wi 1.01,2013-05-29 13:49:00,
2013-05-29 06:59:00,57.6,50.0,29.82,North,-999,0.0,6.3,76,0.00,,,-99.99,FreeWX-Wi 1.01,2013-05-29 13:59:00,
2013-05-29 07:09:00,57.7,49.8,29.82,North,359,1.0,6.7,75,0.00,,,-99.99,FreeWX-Wi 1.01,2013-05-29 14:09:00,
2013-05-29 07:19:00,57.7,50.2,29.85,North,352,1.0,6.3,76,0.00,,,-99.99,FreeWX-Wi 1.01,2013-05-29 14:19:00,
2013-05-29 07:29:00,57.9,50.4,29.85,North,5,1.0,4.0,76,0.00,,,-99.99,FreeWX-Wi 1.01,2013-05-29 14:29:00,
2013-05-29 07:39:00,57.9,50.0,29.85,North,354,2.0,5.8,75,0.00,,,-99.99,FreeWX-Wi 1.01,2013-05-29 14:39:00,
2013-05-29 07:49:00,58.1,50.5,29.85,North,356,1.0,5.8,76,0.00,,,-99.99,FreeWX-Wi 1.01,2013-05-29 14:49:00,
2013-05-29 07:59:00,58.1,50.5,29.85,North,351,2.0,4.9,76,0.00,,,-99.99,FreeWX-Wi 1.01,2013-05-29 14:59:00,
2013-05-29 08:09:00,57.9,50.7,29.85,North,351,2.0,7.6,77,0.00,,,-99.99,FreeWX-Wi 1.01,2013-05-29 15:09:00,
2013-05-29 08:19:00,57.9,50.7,29.85,NNW,338,2.0,6.3,77,0.00,,,-99.99,FreeWX-Wi 1.01,2013-05-29 15:19:00,
2013-05-29 08:29:00,58.1,51.6,29.85,NNW,341,2.0,4.0,79,0.00,,,-99.99,FreeWX-Wi 1.01,2013-05-29 15:29:00,
2013-05-29 08:39:00,58.5,52.3,29.85,NNW,341,2.0,6.3,80,0.00,,,-99.99,FreeWX-Wi 1.01,2013-05-29 15:39:00,
2013-05-29 08:49:00,59.0,52.2,29.85,NNW,328,2.0,5.4,78,0.00,,,-99.99,FreeWX-Wi 1.01,2013-05-29 15:49:00,
2013-05-29 08:59:00,59.7,52.5,29.85,NW,324,2.0,4.9,77,0.00,,,-99.99,FreeWX-Wi 1.01,2013-05-29 15:59:00,
2013-05-29 09:09:00,59.9,51.6,29.85,NNW,331,2.0,6.3,74,0.00,,,-99.99,FreeWX-Wi 1.01,2013-05-29 16:09:00,
2013-05-29 09:19:00,59.9,52.0,29.85,NNW,348,2.0,6.3,75,0.00,,,-99.99,FreeWX-Wi 1.01,2013-05-29 16:19:00,
2013-05-29 09:29:00,60.3,51.6,29.85,North,2,2.0,5.4,73,0.00,,,-99.99,FreeWX-Wi 1.01,2013-05-29 16:29:00,
2013-05-29 09:39:00,61.0,51.4,29.85,North,7,2.0,5.4,71,0.00,,,-99.99,FreeWX-Wi 1.01,2013-05-29 16:39:00,
2013-05-29 09:49:00,61.0,51.1,29.85,North,349,2.0,8.7,70,0.00,,,-99.99,FreeWX-Wi 1.01,2013-05-29 16:49:00,
2013-05-29 09:59:00,61.2,51.3,29.85,NNW,341,3.0,8.1,70,0.00,,,-99.99,FreeWX-Wi 1.01,2013-05-29 16:59:00,
2013-05-29 10:09:00,61.3,51.4,29.85,NNW,333,4.0,8.1,70,0.00,,,-99.99,FreeWX-Wi 1.01,2013-05-29 17:09:00,
2013-05-29 10:19:00,62.1,51.4,29.85,NNW,336,4.0,7.2,68,0.00,,,-99.99,FreeWX-Wi 1.01,2013-05-29 17:19:00,
2013-05-29 10:29:00,63.1,51.6,29.85,NNW,337,4.0,7.6,66,0.00,,,-99.99,FreeWX-Wi 1.01,2013-05-29 17:29:00,
2013-05-29 10:39:00,63.5,51.1,29.85,NNW,342,4.0,8.3,64,0.00,,,-99.99,FreeWX-Wi 1.01,2013-05-29 17:39:00,
2013-05-29 10:49:00,63.0,51.4,29.85,NNW,333,4.0,9.6,66,0.00,,,-99.99,FreeWX-Wi 1.01,2013-05-29 17:49:00,
2013-05-29 10:59:00,63.0,51.8,29.85,NNW,336,5.0,9.6,67,0.00,,,-99.99,FreeWX-Wi 1.01,2013-05-29 17:59:00,
2013-05-29 11:09:00,63.3,51.3,29.85,NNW,329,5.0,10.1,65,0.00,,,-99.99,FreeWX-Wi 1.01,2013-05-29 18:09:00,
2013-05-29 11:19:00,64.4,51.1,29.85,NNW,327,4.0,7.6,62,0.00,,,-99.99,FreeWX-Wi 1.01,2013-05-29 18:19:00,
2013-05-29 11:29:00,64.8,50.2,29.85,NW,324,3.0,7.2,59,0.00,,,-99.99,FreeWX-Wi 1.01,2013-05-29 18:29:00,
2013-05-29 11:39:00,63.9,50.5,29.88,NNW,330,4.0,7.6,62,0.00,,,-99.99,FreeWX-Wi 1.01,2013-05-29 18:39:00,
2013-05-29 11:49:00,63.3,50.9,29.85,NNW,332,4.0,7.6,64,0.00,,,-99.99,FreeWX-Wi 1.01,2013-05-29 18:49:00,
2013-05-29 11:59:00,64.6,50.9,29.85,NNW,336,3.0,7.6,61,0.00,,,-99.99,FreeWX-Wi 1.01,2013-05-29 18:59:00,
2013-05-29 12:09:00,66.2,49.1,29.85,NNW,329,4.0,8.7,54,0.00,,,-99.99,FreeWX-Wi 1.01,2013-05-29 19:09:00,
2013-05-29 12:19:00,66.2,49.1,29.85,NNW,340,4.0,8.7,54,0.00,,,-99.99,FreeWX-Wi 1.01,2013-05-29 19:19:00,
2013-05-29 12:29:00,66.4,48.2,29.85,NNW,336,4.0,8.1,52,0.00,,,-99.99,FreeWX-Wi 1.01,2013-05-29 19:29:00,
2013-05-29 12:39:00,66.4,48.2,29.85,NNW,340,5.0,11.0,52,0.00,,,-99.99,FreeWX-Wi 1.01,2013-05-29 19:39:00,
2013-05-29 12:49:00,66.9,48.2,29.85,NNW,331,5.0,11.0,51,0.00,,,-99.99,FreeWX-Wi 1.01,2013-05-29 19:49:00,
2013-05-29 12:59:00,66.7,47.5,29.85,NNW,336,5.0,10.1,50,0.00,,,-99.99,FreeWX-Wi 1.01,2013-05-29 19:59:00,
2013-05-29 13:09:00,66.6,47.8,29.85,NNW,336,5.0,10.1,51,0.00,,,-99.99,FreeWX-Wi 1.01,2013-05-29 20:09:00,
2013-05-29 13:19:00,66.2,48.0,29.85,NNW,339,5.0,8.7,52,0.00,,,-99.99,FreeWX-Wi 1.01,2013-05-29 20:19:00,
2013-05-29 13:29:00,66.9,48.2,29.85,NNW,340,5.0,8.3,51,0.00,,,-99.99,FreeWX-Wi 1.01,2013-05-29 20:29:00,
2013-05-29 13:39:00,66.7,48.0,29.85,NNW,343,5.0,12.3,51,0.00,,,-99.99,FreeWX-Wi 1.01,2013-05-29 20:39:00,
2013-05-29 13:49:00,66.4,48.2,29.82,NNW,343,6.0,11.4,52,0.00,,,-99.99,FreeWX-Wi 1.01,2013-05-29 20:49:00,
2013-05-29 13:59:00,66.0,48.9,29.82,NNW,340,6.0,12.8,54,0.00,,,-99.99,FreeWX-Wi 1.01,2013-05-29 20:59:00,
2013-05-29 14:09:00,65.7,48.6,29.82,NNW,338,6.0,12.3,54,0.00,,,-99.99,FreeWX-Wi 1.01,2013-05-29 21:09:00,
2013-05-29 14:19:00,65.8,48.7,29.82,NNW,338,6.0,12.3,54,0.00,,,-99.99,FreeWX-Wi 1.01,2013-05-29 21:19:00,
2013-05-29 14:29:00,65.8,47.7,29.82,NNW,336,6.0,11.0,52,0.00,,,-99.99,FreeWX-Wi 1.01,2013-05-29 21:29:00,
2013-05-29 14:39:00,66.0,48.4,29.82,NNW,335,6.0,11.9,53,0.00,,,-99.99,FreeWX-Wi 1.01,2013-05-29 21:39:00,
2013-05-29 14:49:00,66.7,47.5,29.82,NNW,336,6.0,14.5,50,0.00,,,-99.99,FreeWX-Wi 1.01,2013-05-29 21:49:00,
2013-05-29 14:59:00,67.5,46.6,29.82,NNW,344,6.0,12.8,47,0.00,,,-99.99,FreeWX-Wi 1.01,2013-05-29 21:59:00,
2013-05-29 15:09:00,68.4,46.2,29.82,NNW,348,5.0,10.5,45,0.00,,,-99.99,FreeWX-Wi 1.01,2013-05-29 22:09:00,
2013-05-29 15:19:00,68.7,45.9,29.82,NNW,346,5.0,10.1,44,0.00,,,-99.99,FreeWX-Wi 1.01,2013-05-29 22:19:00,
2013-05-29 15:29:00,69.3,45.9,29.82,North,1,4.0,10.1,43,0.00,,,-99.99,FreeWX-Wi 1.01,2013-05-29 22:29:00,
2013-05-29 15:39:00,69.3,45.9,29.82,North,11,4.0,9.6,43,0.00,,,-99.99,FreeWX-Wi 1.01,2013-05-29 22:39:00,
2013-05-29 15:49:00,67.8,45.7,29.82,NNE,17,5.0,10.5,45,0.00,,,-99.99,FreeWX-Wi 1.01,2013-05-29 22:49:00,
2013-05-29 15:59:00,67.5,45.9,29.82,North,9,5.0,12.8,46,0.00,,,-99.99,FreeWX-Wi 1.01,2013-05-29 22:59:00,
2013-05-29 16:09:00,67.5,45.3,29.82,North,6,5.0,10.1,45,0.00,,,-99.99,FreeWX-Wi 1.01,2013-05-29 23:09:00,
2013-05-29 16:19:00,67.3,45.1,29.82,North,6,5.0,10.5,45,0.00,,,-99.99,FreeWX-Wi 1.01,2013-05-29 23:19:00,
2013-05-29 16:29:00,67.6,45.0,29.82,North,354,5.0,9.2,44,0.00,,,-99.99,FreeWX-Wi 1.01,2013-05-29 23:29:00,
2013-05-29 16:39:00,68.0,44.6,29.79,North,3,5.0,9.6,43,0.00,,,-99.99,FreeWX-Wi 1.01,2013-05-29 23:39:00,
2013-05-29 16:49:00,68.4,45.0,29.82,North,0,5.0,9.6,43,0.00,,,-99.99,FreeWX-Wi 1.01,2013-05-29 23:49:00,
2013-05-29 16:59:00,68.0,44.1,29.82,NNW,348,5.0,11.0,42,0.00,,,-99.99,FreeWX-Wi 1.01,2013-05-29 23:59:00,
2013-05-29 17:09:00,67.6,44.4,29.79,NNW,340,4.0,8.7,43,0.00,,,-99.99,FreeWX-Wi 1.01,2013-05-30 00:09:00,
2013-05-29 17:19:00,67.8,44.4,29.79,NNW,346,4.0,8.3,43,0.00,,,-99.99,FreeWX-Wi 1.01,2013-05-30 00:19:00,
2013-05-29 17:29:00,67.6,44.4,29.79,North,10,4.0,10.5,43,0.00,,,-99.99,FreeWX-Wi 1.01,2013-05-30 00:29:00,
2013-05-29 17:39:00,66.9,44.2,29.79,North,10,4.0,9.6,44,0.00,,,-99.99,FreeWX-Wi 1.01,2013-05-30 00:39:00,
2013-05-29 17:49:00,66.6,44.6,29.79,NNE,14,4.0,10.1,45,0.00,,,-99.99,FreeWX-Wi 1.01,2013-05-30 00:49:00,
2013-05-29 17:59:00,66.4,44.4,29.79,North,4,4.0,7.6,45,0.00,,,-99.99,FreeWX-Wi 1.01,2013-05-30 00:59:00,
2013-05-29 18:09:00,66.4,43.9,29.79,NNE,18,4.0,8.1,44,0.00,,,-99.99,FreeWX-Wi 1.01,2013-05-30 01:09:00,
2013-05-29 18:19:00,66.0,44.1,29.79,North,1,3.0,11.0,45,0.00,,,-99.99,FreeWX-Wi 1.01,2013-05-30 01:19:00,
2013-05-29 18:29:00,65.5,43.5,29.79,North,4,4.0,10.5,45,0.00,,,-99.99,FreeWX-Wi 1.01,2013-05-30 01:29:00,
2013-05-29 18:39:00,64.9,43.7,29.79,North,3,3.0,6.3,46,0.00,,,-99.99,FreeWX-Wi 1.01,2013-05-30 01:39:00,
2013-05-29 18:49:00,64.4,43.7,29.79,North,2,3.0,6.3,47,0.00,,,-99.99,FreeWX-Wi 1.01,2013-05-30 01:49:00,
2013-05-29 18:59:00,63.9,43.7,29.79,NNW,345,3.0,10.5,48,0.00,,,-99.99,FreeWX-Wi 1.01,2013-05-30 01:59:00,
2013-05-29 19:09:00,63.1,43.7,29.79,NNW,331,4.0,10.1,49,0.00,,,-99.99,FreeWX-Wi 1.01,2013-05-30 02:09:00,
2013-05-29 19:19:00,62.6,43.7,29.79,NNW,334,5.0,8.3,50,0.00,,,-99.99,FreeWX-Wi 1.01,2013-05-30 02:19:00,
2013-05-29 19:29:00,61.9,44.1,29.79,NNW,334,5.0,8.7,52,0.00,,,-99.99,FreeWX-Wi 1.01,2013-05-30 02:29:00,
2013-05-29 19:39:00,61.3,44.1,29.79,NNW,332,4.0,9.6,53,0.00,,,-99.99,FreeWX-Wi 1.01,2013-05-30 02:39:00,
2013-05-29 19:49:00,61.0,44.2,29.79,NNW,330,4.0,8.7,54,0.00,,,-99.99,FreeWX-Wi 1.01,2013-05-30 02:49:00,
2013-05-29 19:59:00,60.8,44.1,29.79,NNW,337,4.0,8.3,54,0.00,,,-99.99,FreeWX-Wi 1.01,2013-05-30 02:59:00,
2013-05-29 20:17:00,59.9,44.2,29.79,NNW,340,4.0,8.1,56,0.00,,,-99.99,FreeWX-Wi 1.01,2013-05-30 03:17:00,
2013-05-29 20:27:00,59.4,44.1,29.79,NNW,348,4.0,6.3,57,0.00,,,-99.99,FreeWX-Wi 1.01,2013-05-30 03:27:00,
2013-05-29 20:37:00,59.0,44.6,29.79,North,350,3.0,6.3,59,0.00,,,-99.99,FreeWX-Wi 1.01,2013-05-30 03:37:00,
2013-05-29 20:47:00,58.8,45.0,29.79,NNW,345,3.0,6.3,60,0.00,,,-99.99,FreeWX-Wi 1.01,2013-05-30 03:47:00,
2013-05-29 20:57:00,58.5,45.1,29.79,NNW,337,2.0,8.1,61,0.00,,,-99.99,FreeWX-Wi 1.01,2013-05-30 03:57:00,
2013-05-29 21:07:00,58.1,45.1,29.82,NNW,347,2.0,5.4,62,0.00,,,-99.99,FreeWX-Wi 1.01,2013-05-30 04:07:00,
2013-05-29 21:17:00,57.9,45.3,29.82,NE,38,2.0,7.2,63,0.00,,,-99.99,FreeWX-Wi 1.01,2013-05-30 04:17:00,
2013-05-29 21:27:00,57.6,45.5,29.82,NE,42,3.0,8.1,64,0.00,,,-99.99,FreeWX-Wi 1.01,2013-05-30 04:27:00,
2013-05-29 21:37:00,56.8,45.7,29.82,North,9,3.0,8.1,66,0.00,,,-99.99,FreeWX-Wi 1.01,2013-05-30 04:37:00,
2013-05-29 21:47:00,56.7,45.9,29.82,NNW,339,4.0,11.0,67,0.00,,,-99.99,FreeWX-Wi 1.01,2013-05-30 04:47:00,
2013-05-29 21:57:00,56.5,46.0,29.82,NNW,328,5.0,13.2,68,0.00,,,-99.99,FreeWX-Wi 1.01,2013-05-30 04:57:00,
2013-05-29 22:07:00,56.3,45.9,29.82,NNW,330,5.0,8.7,68,0.00,,,-99.99,FreeWX-Wi 1.01,2013-05-30 05:07:00,
2013-05-29 22:17:00,56.5,46.0,29.82,NNW,348,4.0,6.3,68,0.00,,,-99.99,FreeWX-Wi 1.01,2013-05-30 05:17:00,
2013-05-29 22:27:00,56.3,45.9,29.82,NNE,12,4.0,8.7,68,0.00,,,-99.99,FreeWX-Wi 1.01,2013-05-30 05:27:00,
2013-05-29 22:37:00,56.3,45.9,29.82,NNE,17,3.0,8.3,68,0.00,,,-99.99,FreeWX-Wi 1.01,2013-05-30 05:37:00,
2013-05-29 22:47:00,56.3,45.5,29.82,North,352,3.0,8.3,67,0.00,,,-99.99,FreeWX-Wi 1.01,2013-05-30 05:47:00,
2013-05-29 22:57:00,56.1,45.7,29.82,NNW,337,4.0,7.6,68,0.00,,,-99.99,FreeWX-Wi 1.01,2013-05-30 05:57:00,
2013-05-29 23:07:00,55.9,45.5,29.82,NNW,336,4.0,8.3,68,0.00,,,-99.99,FreeWX-Wi 1.01,2013-05-30 06:07:00,
2013-05-29 23:17:00,55.9,45.5,29.82,NNW,334,3.0,5.8,68,0.00,,,-99.99,FreeWX-Wi 1.01,2013-05-30 06:17:00,
2013-05-29 23:27:00,55.9,45.9,29.82,NNW,332,3.0,7.6,69,0.00,,,-99.99,FreeWX-Wi 1.01,2013-05-30 06:27:00,
2013-05-29 23:37:00,55.4,46.2,29.82,NNW,332,3.0,7.2,71,0.00,,,-99.99,FreeWX-Wi 1.01,2013-05-30 06:37:00,
2013-05-29 23:47:00,55.2,46.4,29.82,NNW,337,3.0,8.1,72,0.00,,,-99.99,FreeWX-Wi 1.01,2013-05-30 06:47:00,
2013-05-29 23:57:00,55.0,46.6,29.82,NNW,342,3.0,5.8,73,0.00,,,-99.99,FreeWX-Wi 1.01,2013-05-30 06:57:00,